Main page
METAR-TAF:

METAR-TAF

Airports :

Buenos Aires, Argentina

Aeroparque Jorge Newbery

latitude: 34-34S, longitude: 058-25W, elevation: 6 m

Current weather observation

The report was made 1 hour and 9 minutes ago, at 07:00 UTC
Wind 7 kt from the East/Southeast
Temperature 23°C
Humidity 83%
Pressure 1011 hPa
Visibility 10 km or more
Broken clouds at a height of 1700 ft

METAR: SABE 040700Z 11007KT 9999 BKN017 23/20 Q1011

Time: 05:09 (08:09 UTC)

Forecast

The report was made 3 hours and 9 minutes ago, at 05:00 UTC
Forecast valid from 04 at 06 UTC to 05 at 06 UTC
Wind 5 kt from the East/Southeast
Visibility 10 km or more
Scattered clouds at a height of 1500 ft
Becoming
from 04 at 10 UTC to 04 at 12 UTC
Wind 10 kt from the Northeast
Visibility 10 km or more
no clouds below 1500 m and no cumulonimbus

TAF: SABE 040500Z 0406/0506 110005KT 9999 SCT015 TX31/0418Z TN22/0408Z BECMG 0410/0412 05010KT CAVOK

Weather observations and forecasts of more than 4000 airports (METAR and TAF reports).

The available stations are represented by yellow and red dots on the map.

Hover mouse over dot to see the name of the station.

Then click to see weather observations and forecasts.

To change the map : click on the green buttons with a black cross to zoom in, on the green button with a dash to zoom out, or on the green arrows for adjacent maps.


METAR-TAF: